Aviation Digital Data Service (ADDS)

Output produced by METARs form (1159 UTC 26 March 2019)
found at http://www.aviationweather.gov/metar/data/
 
LCRA 261150Z 23011KT 9999 FEW044 18/06 Q1011 NOSIG
TAF LCRA 261041Z 2612/2706 24010KT 9999 FEW040 
     PROB30 
     TEMPO 2704/2706 4000 TSRA SCT024CB
       
LCLK 261130Z 22014KT 9999 FEW030 20/09 Q1011 NOSIG
TAF LCLK 261130Z 2612/2712 21016KT 9999 FEW030 
     BECMG 2615/2619 30007KT 
     BECMG 2708/2712 22016KT
       
LCPH 261130Z 23007KT 9999 SCT025 18/09 Q1012
TAF LCPH 261130Z 2612/2712 24010KT 9999 FEW020 
     BECMG 2616/2620 02006KT 
     PROB30 
     TEMPO 2700/2712 5000 SHRA 
     BECMG 2708/2712 28015KT